createdAt,value
2022-12-07T00:01:23.493Z,12.57
2022-12-07T00:04:12.207Z,12.73
2022-12-07T00:06:57.513Z,13.63
2022-12-07T00:09:44.102Z,14.55
2022-12-07T00:12:29.815Z,15.02
2022-12-07T00:15:15.253Z,17.17
2022-12-07T00:18:00.520Z,17.17
2022-12-07T00:20:45.844Z,18.45
2022-12-07T00:23:31.520Z,18.98
2022-12-07T00:26:21.612Z,20.00
2022-12-07T00:29:08.784Z,20.35
2022-12-07T00:31:54.527Z,19.55
2022-12-07T00:34:39.966Z,20.95
2022-12-07T00:37:25.195Z,19.45
2022-12-07T00:40:11.198Z,18.83
2022-12-07T00:42:57.777Z,17.30
2022-12-07T00:45:43.400Z,16.15
2022-12-07T00:48:29.530Z,15.77
2022-12-07T00:51:17.287Z,15.02
2022-12-07T00:54:04.655Z,14.70
2022-12-07T00:56:49.852Z,13.85
2022-12-07T00:59:37.893Z,13.45
2022-12-07T01:02:23.782Z,13.07
2022-12-07T01:05:09.742Z,12.67
2022-12-07T01:07:55.357Z,12.02
2022-12-07T01:10:40.983Z,11.77
2022-12-07T01:13:26.139Z,11.20
2022-12-07T01:16:15.486Z,10.98
2022-12-07T01:19:01.691Z,10.07
2022-12-07T01:21:47.420Z,9.90
2022-12-07T01:24:32.678Z,10.23
2022-12-07T01:27:18.044Z,9.70
2022-12-07T01:30:07.547Z,9.80
2022-12-07T01:32:54.461Z,8.93
2022-12-07T01:35:39.696Z,8.80
2022-12-07T01:38:24.936Z,8.48
2022-12-07T01:41:10.469Z,8.63
2022-12-07T01:44:20.998Z,8.80
2022-12-07T01:47:06.507Z,7.97
2022-12-07T01:49:53.579Z,8.77
2022-12-07T01:52:40.738Z,8.27
2022-12-07T01:55:27.200Z,8.30
2022-12-07T01:58:14.626Z,8.68
2022-12-07T02:01:00.336Z,8.40
2022-12-07T02:03:47.022Z,8.05
2022-12-07T02:06:35.708Z,8.80
2022-12-07T02:09:21.174Z,8.60
2022-12-07T02:12:07.278Z,8.35
2022-12-07T02:14:53.495Z,7.80
2022-12-07T02:17:49.303Z,8.07
2022-12-07T02:20:39.078Z,8.07
2022-12-07T02:23:46.003Z,9.10
2022-12-07T02:27:13.591Z,8.40
2022-12-07T02:30:03.681Z,8.50
2022-12-07T02:32:55.000Z,7.57
2022-12-07T02:35:44.305Z,8.05
2022-12-07T02:38:35.064Z,7.43
2022-12-07T02:41:24.586Z,8.50
2022-12-07T02:44:13.907Z,8.47
2022-12-07T02:47:04.931Z,8.60
2022-12-07T02:49:50.711Z,8.95
2022-12-07T02:52:35.960Z,8.88
2022-12-07T02:55:27.196Z,9.00
2022-12-07T02:58:27.912Z,8.60
2022-12-07T03:01:21.582Z,8.48
2022-12-07T03:04:22.084Z,8.43
2022-12-07T03:07:19.239Z,8.90
2022-12-07T03:10:11.274Z,9.00
2022-12-07T03:13:06.222Z,9.30
2022-12-07T03:15:58.548Z,8.98
2022-12-07T03:18:48.585Z,8.93
2022-12-07T03:21:39.751Z,9.32
2022-12-07T03:24:28.501Z,9.57
2022-12-07T03:27:17.886Z,8.60
2022-12-07T03:30:06.933Z,9.02
2022-12-07T03:32:58.252Z,9.18
2022-12-07T03:35:46.001Z,8.60
2022-12-07T03:38:36.817Z,8.23
2022-12-07T03:41:26.109Z,8.82
2022-12-07T03:44:11.592Z,8.18
2022-12-07T03:47:03.635Z,8.05
2022-12-07T03:49:54.968Z,8.23
2022-12-07T03:52:43.724Z,8.27
2022-12-07T03:55:33.567Z,7.37
2022-12-07T03:58:22.730Z,7.15
2022-12-07T04:01:08.378Z,6.78
2022-12-07T04:03:53.755Z,6.90
2022-12-07T04:06:39.593Z,7.07
2022-12-07T04:09:25.106Z,6.10
2022-12-07T04:12:12.190Z,6.60
2022-12-07T04:14:57.804Z,6.15
2022-12-07T04:17:43.125Z,6.40
2022-12-07T04:20:28.495Z,5.82
2022-12-07T04:23:14.530Z,5.85
2022-12-07T04:26:02.617Z,6.18
2022-12-07T04:28:49.244Z,5.72
2022-12-07T04:31:34.847Z,5.22
2022-12-07T04:34:21.311Z,5.22
2022-12-07T04:37:06.852Z,5.87
2022-12-07T04:39:52.019Z,5.75
2022-12-07T04:42:37.369Z,5.82
2022-12-07T04:45:23.847Z,5.50
2022-12-07T04:48:09.148Z,5.22
2022-12-07T04:50:54.783Z,5.43
2022-12-07T04:53:40.294Z,5.75
2022-12-07T04:56:27.137Z,5.45
2022-12-07T04:59:13.380Z,5.05
2022-12-07T05:02:01.302Z,4.63
2022-12-07T05:04:47.057Z,5.20
2022-12-07T05:07:32.509Z,5.13
2022-12-07T05:10:18.587Z,5.70
2022-12-07T05:13:03.794Z,5.78
2022-12-07T05:15:49.544Z,5.35
2022-12-07T05:18:36.388Z,5.37
2022-12-07T05:21:22.708Z,5.32
2022-12-07T05:24:10.958Z,4.35
2022-12-07T05:26:56.354Z,5.40
2022-12-07T05:29:41.813Z,5.25
2022-12-07T05:32:27.685Z,4.90
2022-12-07T05:35:14.514Z,5.30
2022-12-07T05:37:59.990Z,5.40
2022-12-07T05:40:45.542Z,5.63
2022-12-07T05:43:31.360Z,6.63
2022-12-07T05:46:17.018Z,6.37
2022-12-07T05:49:03.451Z,7.53
2022-12-07T05:51:50.419Z,6.80
2022-12-07T05:54:36.139Z,7.20
2022-12-07T05:57:21.884Z,8.90
2022-12-07T06:00:08.678Z,9.33
2022-12-07T06:02:54.396Z,9.75
2022-12-07T06:05:40.096Z,9.60
2022-12-07T06:08:26.718Z,11.77
2022-12-07T06:11:31.222Z,12.23
2022-12-07T06:14:16.478Z,12.82
2022-12-07T06:17:02.046Z,14.85
2022-12-07T06:19:49.263Z,14.82
2022-12-07T06:22:34.929Z,15.93
2022-12-07T06:25:21.776Z,17.55
2022-12-07T06:28:07.009Z,16.33
2022-12-07T06:30:58.367Z,17.83
2022-12-07T06:33:43.722Z,18.80
2022-12-07T06:36:29.740Z,17.13
2022-12-07T06:39:15.469Z,17.67
2022-12-07T06:42:02.939Z,18.27
2022-12-07T06:44:48.600Z,17.35
2022-12-07T06:47:42.468Z,16.63
2022-12-07T06:50:40.386Z,16.60
2022-12-07T06:53:26.254Z,15.88
2022-12-07T06:56:11.782Z,15.17
2022-12-07T06:58:58.784Z,15.27
2022-12-07T07:01:44.357Z,15.88
2022-12-07T07:04:29.729Z,15.60
2022-12-07T07:07:15.151Z,14.70
2022-12-07T07:10:02.146Z,13.87
2022-12-07T07:12:47.924Z,14.07
2022-12-07T07:15:39.416Z,12.90
2022-12-07T07:18:25.482Z,13.27
2022-12-07T07:21:11.018Z,12.20
2022-12-07T07:23:57.553Z,12.02
2022-12-07T07:26:43.194Z,12.45
2022-12-07T07:29:28.438Z,12.60
2022-12-07T07:32:16.093Z,11.98
2022-12-07T07:35:01.603Z,11.75
2022-12-07T07:37:47.120Z,11.93
2022-12-07T07:40:34.317Z,12.38
2022-12-07T07:43:22.052Z,12.32
2022-12-07T07:46:08.086Z,12.05
2022-12-07T07:48:55.253Z,12.13
2022-12-07T07:51:41.297Z,11.57
2022-12-07T07:54:28.995Z,11.57
2022-12-07T07:57:23.769Z,11.80
2022-12-07T08:00:14.607Z,11.48
2022-12-07T08:03:09.398Z,11.65
2022-12-07T08:05:57.590Z,11.60
2022-12-07T08:08:43.434Z,12.68
2022-12-07T08:11:29.165Z,12.75
2022-12-07T08:14:15.082Z,12.57
2022-12-07T08:17:01.200Z,13.40
2022-12-07T08:19:46.770Z,14.37
2022-12-07T08:22:33.673Z,17.27
2022-12-07T08:25:19.576Z,17.52
2022-12-07T08:28:05.505Z,17.33
2022-12-07T08:30:51.078Z,18.08
2022-12-07T08:33:37.539Z,17.48
2022-12-07T08:36:24.079Z,19.25
2022-12-07T08:42:16.893Z,18.15
2022-12-07T08:45:02.465Z,18.05
2022-12-07T08:47:51.797Z,19.92
2022-12-07T08:50:38.576Z,18.45
2022-12-07T08:53:24.510Z,18.05
2022-12-07T08:56:12.018Z,18.20
2022-12-07T08:58:59.315Z,16.63
2022-12-07T09:01:45.020Z,17.23
2022-12-07T09:04:30.941Z,16.55
2022-12-07T09:07:17.797Z,16.88
2022-12-07T09:10:12.716Z,16.50
2022-12-07T09:13:02.363Z,16.25
2022-12-07T09:15:47.742Z,15.70
2022-12-07T09:18:34.557Z,15.60
2022-12-07T09:21:20.442Z,15.57
2022-12-07T09:24:07.855Z,15.07
2022-12-07T09:26:53.324Z,15.13
2022-12-07T09:29:40.367Z,15.10
2022-12-07T09:32:26.018Z,14.88
2022-12-07T09:35:11.674Z,14.82
2022-12-07T09:37:57.308Z,15.20
2022-12-07T09:40:44.851Z,14.60
2022-12-07T09:43:30.499Z,13.98
2022-12-07T09:46:20.159Z,14.25
2022-12-07T09:49:06.438Z,13.45
2022-12-07T09:52:02.525Z,13.23
2022-12-07T09:54:51.075Z,13.52
2022-12-07T09:57:38.250Z,12.35
2022-12-07T10:00:25.228Z,13.98
2022-12-07T10:03:13.287Z,11.77
2022-12-07T10:05:59.026Z,11.18
2022-12-07T10:08:44.959Z,11.18
2022-12-07T10:11:31.330Z,11.10
2022-12-07T10:14:16.736Z,10.98
2022-12-07T10:17:02.641Z,11.02
2022-12-07T10:19:49.731Z,10.75
2022-12-07T10:22:35.091Z,11.00
2022-12-07T10:25:22.451Z,11.13
2022-12-07T10:28:15.812Z,11.50
2022-12-07T10:31:05.809Z,11.23
2022-12-07T10:33:53.588Z,10.73
2022-12-07T10:36:44.597Z,10.75
2022-12-07T10:39:30.083Z,11.60
2022-12-07T10:42:20.635Z,11.85
2022-12-07T10:45:13.553Z,10.65
2022-12-07T10:48:05.464Z,10.90
2022-12-07T10:51:06.382Z,10.77
2022-12-07T10:54:09.197Z,10.63
2022-12-07T10:57:24.220Z,10.73
2022-12-07T11:00:16.864Z,12.20
2022-12-07T11:03:47.112Z,10.38
2022-12-07T11:06:39.078Z,10.95
2022-12-07T11:10:13.032Z,11.10
2022-12-07T11:13:16.734Z,10.65
2022-12-07T11:16:36.254Z,10.88
2022-12-07T11:19:36.510Z,12.15
2022-12-07T11:22:34.360Z,12.25
2022-12-07T11:25:31.482Z,11.15
2022-12-07T11:28:32.540Z,11.07
2022-12-07T11:31:29.745Z,11.77
2022-12-07T11:34:26.269Z,12.70
2022-12-07T11:37:16.006Z,12.38
2022-12-07T11:40:05.963Z,12.37
2022-12-07T11:42:57.030Z,12.05
2022-12-07T11:45:46.457Z,11.60
2022-12-07T11:48:38.247Z,11.57
2022-12-07T11:51:29.017Z,12.75
2022-12-07T11:54:22.110Z,12.27
2022-12-07T11:57:20.027Z,12.20
2022-12-07T12:00:14.045Z,11.55
2022-12-07T12:03:05.383Z,11.73
2022-12-07T12:05:51.303Z,11.68
2022-12-07T12:15:22.284Z,12.07
2022-12-07T12:18:23.366Z,11.32
2022-12-07T12:21:12.969Z,11.85
2022-12-07T12:24:01.657Z,10.68
2022-12-07T12:26:52.889Z,12.30
2022-12-07T12:29:41.658Z,11.63
2022-12-07T12:32:39.495Z,11.45
2022-12-07T12:35:31.612Z,10.68
2022-12-07T12:38:34.331Z,11.30
2022-12-07T12:42:02.541Z,10.77
2022-12-07T12:45:18.714Z,10.60
2022-12-07T12:48:28.087Z,10.02
2022-12-07T12:51:38.107Z,9.85
2022-12-07T12:54:26.681Z,9.37
2022-12-07T12:57:19.327Z,9.52
2022-12-07T13:00:18.293Z,9.40
2022-12-07T13:03:08.859Z,8.85
2022-12-07T13:06:34.658Z,7.95
2022-12-07T13:09:24.133Z,8.07
2022-12-07T13:12:15.427Z,7.93
2022-12-07T13:15:01.258Z,7.30
2022-12-07T13:18:04.127Z,7.70
2022-12-07T13:20:56.390Z,7.00
2022-12-07T13:23:59.310Z,7.50
2022-12-07T13:26:45.851Z,5.93
2022-12-07T13:29:38.084Z,6.55
2022-12-07T13:32:26.351Z,6.25
2022-12-07T13:35:35.682Z,6.20
2022-12-07T13:38:28.292Z,6.17
2022-12-07T13:41:16.725Z,6.50
2022-12-07T13:44:05.183Z,6.03
2022-12-07T13:46:58.367Z,6.13
2022-12-07T13:49:53.263Z,5.45
2022-12-07T13:52:45.645Z,5.85
2022-12-07T13:55:33.791Z,5.95
2022-12-07T13:58:19.318Z,5.95
2022-12-07T14:01:07.867Z,5.70
2022-12-07T14:03:56.010Z,5.78
2022-12-07T14:06:57.554Z,5.30
2022-12-07T14:09:42.811Z,5.40
2022-12-07T14:12:43.713Z,5.50
2022-12-07T14:15:31.657Z,5.28
2022-12-07T14:18:28.842Z,5.47
2022-12-07T14:21:19.868Z,6.00
2022-12-07T14:24:19.383Z,6.38
2022-12-07T14:27:04.821Z,6.53
2022-12-07T14:29:52.306Z,6.35
2022-12-07T14:32:38.988Z,6.93
2022-12-07T14:35:24.905Z,7.27
2022-12-07T14:38:10.842Z,6.45
2022-12-07T14:41:17.423Z,6.53
2022-12-07T14:44:22.386Z,7.22
2022-12-07T14:50:20.079Z,6.35
2022-12-07T14:53:26.921Z,7.28
2022-12-07T14:56:12.871Z,6.70
2022-12-07T14:58:58.666Z,6.88
2022-12-07T15:01:44.213Z,7.47
2022-12-07T15:04:31.080Z,8.40
2022-12-07T15:07:21.076Z,7.63
2022-12-07T15:10:22.109Z,7.53
2022-12-07T15:13:28.359Z,8.13
2022-12-07T15:19:30.010Z,7.57
2022-12-07T15:22:17.563Z,8.50
2022-12-07T15:25:05.384Z,8.73
2022-12-07T15:27:52.127Z,9.07
2022-12-07T15:30:39.007Z,9.98
2022-12-07T15:33:24.708Z,8.80
2022-12-07T15:36:19.249Z,9.35
2022-12-07T15:39:14.090Z,9.32
2022-12-07T15:42:03.365Z,9.23
2022-12-07T15:45:07.413Z,9.15
2022-12-07T15:48:26.747Z,9.80
2022-12-07T15:51:04.413Z,10.75
2022-12-07T15:53:49.600Z,11.20
2022-12-07T15:56:36.384Z,12.45
2022-12-07T15:59:21.893Z,12.68
2022-12-07T16:02:07.305Z,13.20
2022-12-07T16:04:54.095Z,14.32
2022-12-07T16:07:39.295Z,14.90
2022-12-07T16:10:24.992Z,16.20
2022-12-07T16:13:12.457Z,17.50
2022-12-07T16:15:57.714Z,16.93
2022-12-07T16:18:43.935Z,18.20
2022-12-07T16:21:29.715Z,18.95
2022-12-07T16:24:17.415Z,19.20
2022-12-07T16:27:02.825Z,19.67
2022-12-07T16:29:49.519Z,19.33
2022-12-07T16:32:34.947Z,18.13
2022-12-07T16:35:20.507Z,18.60
2022-12-07T16:38:06.026Z,19.02
2022-12-07T16:40:51.929Z,17.63
2022-12-07T16:43:38.010Z,18.60
2022-12-07T16:46:25.702Z,18.67
2022-12-07T16:49:13.950Z,18.50
2022-12-07T16:55:06.065Z,16.65
2022-12-07T16:57:51.904Z,17.33
2022-12-07T17:00:37.797Z,18.52
2022-12-07T17:03:25.077Z,17.92
2022-12-07T17:06:15.669Z,17.80
2022-12-07T17:09:01.713Z,17.90
2022-12-07T17:11:47.356Z,18.00
2022-12-07T17:14:51.137Z,17.85
2022-12-07T17:17:36.626Z,17.38
2022-12-07T17:20:25.657Z,17.58
2022-12-07T17:23:12.386Z,17.25
2022-12-07T17:26:05.737Z,16.83
2022-12-07T17:28:51.741Z,16.77
2022-12-07T17:31:37.376Z,15.50
2022-12-07T17:34:23.351Z,16.63
2022-12-07T17:37:28.391Z,15.30
2022-12-07T17:40:14.437Z,16.40
2022-12-07T17:42:59.995Z,15.63
2022-12-07T17:45:47.609Z,15.20
2022-12-07T17:48:35.187Z,15.48
2022-12-07T17:51:39.445Z,16.05
2022-12-07T17:54:26.601Z,14.87
2022-12-07T17:57:13.236Z,15.77
2022-12-07T17:59:59.182Z,13.57
2022-12-07T18:02:44.839Z,15.00
2022-12-07T18:05:30.499Z,14.73
2022-12-07T18:08:17.096Z,14.20
2022-12-07T18:11:05.339Z,15.45
2022-12-07T18:13:52.657Z,16.60
2022-12-07T18:16:38.264Z,16.50
2022-12-07T18:19:24.381Z,15.38
2022-12-07T18:22:11.346Z,16.60
2022-12-07T18:25:03.666Z,16.63
2022-12-07T18:27:52.485Z,17.05
2022-12-07T18:31:13.819Z,17.05
2022-12-07T18:33:49.044Z,18.55
2022-12-07T18:36:35.386Z,20.63
2022-12-07T18:39:22.330Z,20.13
2022-12-07T18:42:14.754Z,21.58
2022-12-07T18:45:02.437Z,22.67
2022-12-07T18:47:50.430Z,20.85
2022-12-07T18:50:39.823Z,22.23
2022-12-07T18:53:27.625Z,21.73
2022-12-07T18:56:26.981Z,22.05
2022-12-07T18:59:33.528Z,24.45
2022-12-07T19:02:24.609Z,24.55
2022-12-07T19:05:11.344Z,23.77
2022-12-07T19:07:59.034Z,24.88
2022-12-07T19:11:23.686Z,24.73
2022-12-07T19:14:10.689Z,24.38
2022-12-07T19:17:01.272Z,26.75
2022-12-07T19:19:49.636Z,24.88
2022-12-07T19:22:36.109Z,24.92
2022-12-07T19:25:22.688Z,26.42
2022-12-07T19:28:10.410Z,26.85
2022-12-07T19:30:57.871Z,27.08
2022-12-07T19:33:45.274Z,27.93
2022-12-07T19:36:34.516Z,28.05
2022-12-07T19:39:27.263Z,31.27
2022-12-07T19:42:18.132Z,32.58
2022-12-07T19:45:09.897Z,31.30
2022-12-07T19:47:56.800Z,31.03
2022-12-07T19:50:43.786Z,30.50
2022-12-07T19:53:34.998Z,30.83
2022-12-07T19:56:39.149Z,29.23
2022-12-07T19:59:28.889Z,29.60
2022-12-07T20:02:30.901Z,28.50
2022-12-07T20:05:26.458Z,29.17
2022-12-07T20:08:13.424Z,29.60
2022-12-07T20:11:37.140Z,27.33
2022-12-07T20:14:24.565Z,26.15
2022-12-07T20:17:11.327Z,26.37
2022-12-07T20:19:57.661Z,24.17
2022-12-07T20:22:44.612Z,24.90
2022-12-07T20:25:33.035Z,23.08
2022-12-07T20:28:22.143Z,21.90
2022-12-07T20:31:08.331Z,22.23
2022-12-07T20:33:56.290Z,21.52
2022-12-07T20:36:43.840Z,19.98
2022-12-07T20:39:31.903Z,19.88
2022-12-07T20:42:37.544Z,19.42
2022-12-07T20:45:25.454Z,18.50
2022-12-07T20:48:16.698Z,18.45
2022-12-07T20:51:06.370Z,17.42
2022-12-07T20:53:52.980Z,18.10
2022-12-07T20:56:39.134Z,18.23
2022-12-07T20:59:26.586Z,17.30
2022-12-07T21:02:15.498Z,17.35
2022-12-07T21:05:02.577Z,18.27
2022-12-07T21:07:49.488Z,16.85
2022-12-07T21:10:35.394Z,17.15
2022-12-07T21:13:20.969Z,16.97
2022-12-07T21:16:14.126Z,15.88
2022-12-07T21:19:02.910Z,15.75
2022-12-07T21:21:48.585Z,14.73
2022-12-07T21:24:34.042Z,14.60
2022-12-07T21:27:19.490Z,15.00
2022-12-07T21:30:05.894Z,14.70
2022-12-07T21:32:51.208Z,15.00
2022-12-07T21:35:40.055Z,14.40
2022-12-07T21:38:25.857Z,13.93
2022-12-07T21:41:13.276Z,15.43
2022-12-07T21:44:00.387Z,16.33
2022-12-07T21:46:46.185Z,16.65
2022-12-07T21:49:31.866Z,17.50
2022-12-07T21:52:19.069Z,17.40
2022-12-07T21:55:05.245Z,19.13
2022-12-07T21:57:50.734Z,19.67
2022-12-07T22:00:36.394Z,22.35
2022-12-07T22:03:22.214Z,22.67
2022-12-07T22:06:09.807Z,24.15
2022-12-07T22:08:57.468Z,24.97
2022-12-07T22:11:43.524Z,26.58
2022-12-07T22:14:47.995Z,26.77
2022-12-07T22:17:33.504Z,26.55
2022-12-07T22:20:20.127Z,25.58
2022-12-07T22:23:05.637Z,25.67
2022-12-07T22:25:52.254Z,24.65
2022-12-07T22:28:38.330Z,23.98
2022-12-07T22:31:24.489Z,23.38
2022-12-07T22:34:15.724Z,23.42
2022-12-07T22:37:01.109Z,22.37
2022-12-07T22:39:47.048Z,21.33
2022-12-07T22:42:34.037Z,20.48
2022-12-07T22:45:19.613Z,20.70
2022-12-07T22:48:05.751Z,20.65
2022-12-07T22:50:52.780Z,20.27
2022-12-07T22:53:38.023Z,18.95
2022-12-07T22:56:23.569Z,17.65
2022-12-07T22:59:13.585Z,18.60
2022-12-07T23:01:59.129Z,18.35
2022-12-07T23:04:44.494Z,17.63
2022-12-07T23:07:33.351Z,16.63
2022-12-07T23:10:18.903Z,16.15
2022-12-07T23:13:23.357Z,17.23
2022-12-07T23:16:13.045Z,15.70
2022-12-07T23:18:58.799Z,15.48
2022-12-07T23:21:44.942Z,16.05
2022-12-07T23:24:31.798Z,15.68
2022-12-07T23:27:17.400Z,14.38
2022-12-07T23:30:03.163Z,13.73
2022-12-07T23:32:49.801Z,13.10
2022-12-07T23:35:35.002Z,13.38
2022-12-07T23:38:20.257Z,12.27
2022-12-07T23:41:07.731Z,12.77
2022-12-07T23:43:53.725Z,12.63
2022-12-07T23:46:39.456Z,13.27
2022-12-07T23:49:26.252Z,12.35
2022-12-07T23:52:11.679Z,12.60
2022-12-07T23:54:57.227Z,13.45
2022-12-07T23:57:42.841Z,12.30
